Time;durP1;ratioP1;P1;durP2;ratioP2;P2;SDS_P1;SDS_P2;PMS_P1;PMS_P2;Temp;Humidity;BMP_temperature;BMP_pressure;BME280_temperature;BME280_humidity;BME280_pressure;Samples;Min_cycle;Max_cycle;Signal;HPM_P1;HPM_P2
2023/11/06 00:00:11;;;;;;;3.97;1.17;;;10.30;99.90;;;;;;4110639;28;20244;-80
2023/11/06 00:02:14;;;;;;;1.90;0.70;;;10.30;99.90;;;;;;4119603;28;20653;-80
2023/11/06 00:04:16;;;;;;;1.90;0.63;;;10.30;99.90;;;;;;4119447;28;20248;-80
2023/11/06 00:06:18;;;;;;;2.90;0.70;;;10.30;99.90;;;;;;4115814;28;20212;-80
2023/11/06 00:08:20;;;;;;;4.40;1.57;;;10.30;99.90;;;;;;4117143;28;20259;-80
2023/11/06 00:10:22;;;;;;;0.93;0.60;;;10.30;99.90;;;;;;4112833;28;20275;-80
2023/11/06 00:12:26;;;;;;;0.83;0.50;;;10.30;99.90;;;;;;4114298;28;21088;-80
2023/11/06 00:14:28;;;;;;;2.97;1.00;;;10.30;99.90;;;;;;4106553;28;20315;-80
2023/11/06 00:16:30;;;;;;;4.20;0.70;;;10.30;99.90;;;;;;4113061;28;20213;-80
2023/11/06 00:18:32;;;;;;;1.63;0.60;;;10.30;99.90;;;;;;4113952;28;20271;-80
2023/11/06 00:20:33;;;;;;;4.23;0.70;;;10.30;99.90;;;;;;4124124;28;20202;-80
2023/11/06 00:22:36;;;;;;;1.37;0.60;;;10.30;99.90;;;;;;4115691;28;20201;-80
2023/11/06 00:24:38;;;;;;;3.53;0.70;;;10.30;99.90;;;;;;4120635;28;20285;-80
2023/11/06 00:26:40;;;;;;;1.90;0.70;;;10.30;99.90;;;;;;4114334;28;20207;-80
2023/11/06 00:28:44;;;;;;;1.90;0.70;;;10.30;99.90;;;;;;4116059;28;20268;-80
2023/11/06 00:30:46;;;;;;;3.53;0.90;;;10.30;99.90;;;;;;4117894;28;20198;-80
2023/11/06 00:32:48;;;;;;;2.60;0.60;;;10.20;99.90;;;;;;4119444;28;20240;-80
2023/11/06 00:34:50;;;;;;;1.67;0.60;;;10.30;99.90;;;;;;4120333;28;20229;-80
2023/11/06 00:36:54;;;;;;;2.20;0.70;;;10.30;99.90;;;;;;4123934;28;20203;-80
2023/11/06 00:38:56;;;;;;;0.63;0.50;;;10.30;99.90;;;;;;4118711;28;20208;-80
2023/11/06 00:40:57;;;;;;;2.53;0.80;;;10.30;99.90;;;;;;4120998;28;20209;-80
2023/11/06 00:43:00;;;;;;;1.97;0.60;;;10.30;99.90;;;;;;4114892;28;20463;-80
2023/11/06 00:45:04;;;;;;;2.13;0.70;;;10.30;99.90;;;;;;4117506;28;20229;-80
2023/11/06 00:47:09;;;;;;;3.47;0.70;;;10.30;99.90;;;;;;4116123;28;20212;-80
2023/11/06 00:49:10;;;;;;;2.00;0.70;;;10.30;99.90;;;;;;4119864;28;20207;-80
2023/11/06 00:51:12;;;;;;;3.20;0.70;;;10.30;99.90;;;;;;4124362;28;20217;-80
2023/11/06 00:53:14;;;;;;;2.77;0.70;;;10.20;99.90;;;;;;4119567;28;20212;-80
2023/11/06 00:55:16;;;;;;;2.87;0.80;;;10.10;99.90;;;;;;4118607;28;20232;-80
2023/11/06 00:57:17;;;;;;;2.57;0.60;;;10.20;99.90;;;;;;4120385;28;20209;-80
2023/11/06 00:59:20;;;;;;;1.87;0.60;;;10.20;99.90;;;;;;4123275;28;20259;-80
2023/11/06 01:01:25;;;;;;;3.73;0.70;;;10.20;99.90;;;;;;4118292;28;20223;-80
2023/11/06 01:03:26;;;;;;;0.90;0.50;;;10.20;99.90;;;;;;4118386;28;20212;-80
2023/11/06 01:05:31;;;;;;;2.87;0.73;;;10.20;99.90;;;;;;4113736;28;20229;-81
2023/11/06 01:07:32;;;;;;;2.80;0.80;;;10.20;99.90;;;;;;4119748;28;20209;-80
2023/11/06 01:09:34;;;;;;;5.07;0.70;;;10.20;99.90;;;;;;4114305;28;20256;-79
2023/11/06 01:11:36;;;;;;;0.90;0.43;;;10.20;99.90;;;;;;4116454;28;20229;-80
2023/11/06 01:13:37;;;;;;;8.83;0.80;;;10.10;99.90;;;;;;4116365;28;20216;-80
2023/11/06 01:15:42;;;;;;;2.37;0.60;;;10.10;99.90;;;;;;4119918;28;20731;-80
2023/11/06 01:17:45;;;;;;;5.23;0.80;;;10.10;99.90;;;;;;4114862;28;20293;-80
2023/11/06 01:19:47;;;;;;;4.90;1.30;;;10.10;99.90;;;;;;4116270;28;20616;-80
2023/11/06 01:21:50;;;;;;;0.97;0.67;;;10.10;99.90;;;;;;4113777;28;20235;-80
2023/11/06 01:23:51;;;;;;;0.83;0.43;;;10.10;99.90;;;;;;4121371;28;20312;-80
2023/11/06 01:25:53;;;;;;;1.97;0.63;;;10.10;99.90;;;;;;4120513;28;20216;-80
2023/11/06 01:27:55;;;;;;;3.00;0.90;;;10.00;99.90;;;;;;4121398;28;20605;-80
2023/11/06 01:29:57;;;;;;;3.63;0.63;;;10.00;99.90;;;;;;4117913;28;20492;-80
2023/11/06 01:31:59;;;;;;;1.70;0.70;;;10.00;99.90;;;;;;4124750;28;20268;-80
2023/11/06 01:34:02;;;;;;;3.83;0.67;;;10.00;99.90;;;;;;4123230;28;20310;-80
2023/11/06 01:36:05;;;;;;;3.33;0.90;;;10.00;99.90;;;;;;4122699;28;20210;-80
2023/11/06 01:38:07;;;;;;;1.13;0.50;;;10.00;99.90;;;;;;4127102;28;20296;-80
2023/11/06 01:40:13;;;;;;;2.53;0.57;;;10.20;99.90;;;;;;4130274;28;20234;-80
2023/11/06 01:42:15;;;;;;;3.13;1.07;;;10.00;99.90;;;;;;4129593;28;20204;-80
2023/11/06 01:44:17;;;;;;;1.50;0.50;;;10.00;99.90;;;;;;4129307;28;20225;-80
2023/11/06 01:46:20;;;;;;;1.47;0.60;;;10.00;99.90;;;;;;4131911;28;20189;-80
2023/11/06 01:48:26;;;;;;;3.40;0.50;;;10.00;99.90;;;;;;4133394;28;20216;-80
2023/11/06 01:50:30;;;;;;;3.00;0.50;;;10.30;99.90;;;;;;4131831;28;20209;-80
2023/11/06 01:52:33;;;;;;;0.80;0.50;;;9.90;99.90;;;;;;4132510;28;20220;-80
2023/11/06 01:54:34;;;;;;;2.10;0.43;;;9.90;99.90;;;;;;4131652;28;20231;-80
2023/11/06 01:56:38;;;;;;;0.80;0.50;;;9.90;99.90;;;;;;4127845;28;20207;-81
2023/11/06 01:58:40;;;;;;;4.53;0.80;;;9.90;99.90;;;;;;4130228;28;20200;-81
2023/11/06 02:00:45;;;;;;;0.90;0.60;;;9.90;99.90;;;;;;4123685;28;20215;-80
2023/11/06 02:02:49;;;;;;;1.73;0.63;;;9.90;99.90;;;;;;4122036;28;20243;-80
2023/11/06 02:04:53;;;;;;;3.63;0.73;;;9.80;99.90;;;;;;4120173;28;20229;-80
2023/11/06 02:06:56;;;;;;;1.77;0.40;;;9.80;99.90;;;;;;4123264;28;20250;-80
2023/11/06 02:08:58;;;;;;;2.23;0.60;;;9.80;99.90;;;;;;4120193;28;20254;-80
2023/11/06 02:11:03;;;;;;;4.53;0.87;;;9.80;99.90;;;;;;4113069;28;20211;-80
2023/11/06 02:13:06;;;;;;;4.77;1.70;;;9.80;99.90;;;;;;4112522;28;20214;-80
2023/11/06 02:15:13;;;;;;;6.17;0.90;;;9.80;99.90;;;;;;4120769;28;20301;-80
2023/11/06 02:17:15;;;;;;;3.93;1.00;;;9.80;99.90;;;;;;4117196;28;20559;-80
2023/11/06 02:19:17;;;;;;;2.07;0.60;;;9.80;99.90;;;;;;4115362;28;20212;-80
2023/11/06 02:21:20;;;;;;;1.10;0.67;;;9.80;99.90;;;;;;4115149;28;20230;-80
2023/11/06 02:23:24;;;;;;;4.37;0.60;;;9.80;99.90;;;;;;4116171;28;20216;-80
2023/11/06 02:25:26;;;;;;;2.10;0.60;;;9.80;99.90;;;;;;4112355;28;20335;-80
2023/11/06 02:27:28;;;;;;;2.00;0.70;;;9.80;99.90;;;;;;4120082;28;20232;-80
2023/11/06 02:29:29;;;;;;;1.87;0.80;;;9.80;99.90;;;;;;4122492;28;20230;-80
2023/11/06 02:31:34;;;;;;;5.40;0.60;;;9.80;99.90;;;;;;4114117;28;20196;-80
2023/11/06 02:33:36;;;;;;;4.90;0.60;;;9.80;99.90;;;;;;4115459;28;20266;-80
2023/11/06 02:35:38;;;;;;;1.90;0.60;;;9.80;99.90;;;;;;4118236;28;20223;-80
2023/11/06 02:37:39;;;;;;;1.93;0.50;;;9.80;99.90;;;;;;4112554;28;20219;-80
2023/11/06 02:39:42;;;;;;;2.50;0.53;;;9.80;99.90;;;;;;4117859;28;20212;-81
2023/11/06 02:41:44;;;;;;;1.93;0.70;;;9.70;99.90;;;;;;4117572;28;20212;-80
2023/11/06 02:43:46;;;;;;;3.23;0.53;;;9.70;99.90;;;;;;4122088;28;21046;-80
2023/11/06 02:45:47;;;;;;;2.27;0.60;;;9.70;99.90;;;;;;4117283;28;20216;-80
2023/11/06 02:47:49;;;;;;;4.20;0.80;;;9.70;99.90;;;;;;4117906;28;20207;-80
2023/11/06 02:49:51;;;;;;;1.63;0.60;;;9.70;99.90;;;;;;4114638;28;20213;-80
2023/11/06 02:51:54;;;;;;;2.40;0.70;;;9.70;99.90;;;;;;4116259;28;20207;-80
2023/11/06 02:53:56;;;;;;;1.93;0.60;;;9.70;99.90;;;;;;4117302;28;20251;-80
2023/11/06 02:55:58;;;;;;;2.20;0.77;;;9.70;99.90;;;;;;4115615;28;20739;-80
2023/11/06 02:58:00;;;;;;;3.20;0.63;;;9.70;99.90;;;;;;4129693;28;20214;-79
2023/11/06 03:00:06;;;;;;;5.90;0.70;;;9.70;99.90;;;;;;4119616;28;20278;-80
2023/11/06 03:02:08;;;;;;;2.40;0.50;;;9.70;99.90;;;;;;4113468;28;20211;-80
2023/11/06 03:04:12;;;;;;;4.37;0.83;;;9.70;99.90;;;;;;4118227;28;20290;-80
2023/11/06 03:06:13;;;;;;;4.53;0.57;;;9.70;99.90;;;;;;4118091;28;20221;-80
2023/11/06 03:08:15;;;;;;;3.60;0.60;;;9.70;99.90;;;;;;4118686;28;20204;-80
2023/11/06 03:10:16;;;;;;;2.57;0.53;;;9.70;99.90;;;;;;4108905;28;20210;-80
2023/11/06 03:12:20;;;;;;;5.53;1.03;;;9.70;99.90;;;;;;4111910;28;20215;-80
2023/11/06 03:14:22;;;;;;;2.43;0.60;;;9.70;99.90;;;;;;4111111;28;20248;-80
2023/11/06 03:16:23;;;;;;;2.80;0.70;;;9.70;99.90;;;;;;4116345;28;20211;-80
2023/11/06 03:18:25;;;;;;;3.63;0.70;;;9.70;99.90;;;;;;4115028;28;20212;-80
2023/11/06 03:20:27;;;;;;;1.10;0.70;;;9.60;99.90;;;;;;4113316;28;20200;-80
2023/11/06 03:22:28;;;;;;;2.63;0.70;;;9.60;99.90;;;;;;4114493;28;20215;-80
2023/11/06 03:24:30;;;;;;;1.60;0.53;;;9.60;99.90;;;;;;4123722;28;20216;-80
2023/11/06 03:26:32;;;;;;;3.07;0.70;;;9.60;99.90;;;;;;4115399;28;20263;-81
2023/11/06 03:28:35;;;;;;;2.30;0.80;;;9.60;99.90;;;;;;4113780;28;20235;-80
2023/11/06 03:30:38;;;;;;;2.50;0.70;;;9.70;99.90;;;;;;4116491;28;20213;-80
2023/11/06 03:32:39;;;;;;;4.50;1.87;;;9.70;99.90;;;;;;4111413;28;20204;-80
2023/11/06 03:34:44;;;;;;;5.10;0.70;;;9.70;99.90;;;;;;4113128;28;20239;-80
2023/11/06 03:36:46;;;;;;;0.60;0.50;;;9.70;99.90;;;;;;4109201;28;20217;-80
2023/11/06 03:38:49;;;;;;;0.87;0.63;;;9.70;99.90;;;;;;4114839;28;20224;-80
2023/11/06 03:40:51;;;;;;;3.93;0.70;;;9.70;99.90;;;;;;4116563;28;20667;-80
2023/11/06 03:42:53;;;;;;;5.83;0.80;;;9.70;99.90;;;;;;4115381;28;20226;-80
2023/11/06 03:44:57;;;;;;;4.50;0.50;;;9.70;99.90;;;;;;4110247;28;20218;-80
2023/11/06 03:46:59;;;;;;;2.90;0.60;;;9.70;99.90;;;;;;4109224;28;20212;-79
2023/11/06 03:49:00;;;;;;;1.53;0.50;;;9.70;99.90;;;;;;4111791;28;20222;-80
2023/11/06 03:51:02;;;;;;;2.77;0.63;;;9.70;99.90;;;;;;4114298;28;20285;-80
2023/11/06 03:53:03;;;;;;;1.27;0.50;;;9.80;99.90;;;;;;4123406;28;20294;-80
2023/11/06 03:55:06;;;;;;;3.03;0.60;;;9.80;99.90;;;;;;4107444;28;20258;-80
2023/11/06 03:57:08;;;;;;;2.03;0.60;;;9.80;99.90;;;;;;4111240;28;20221;-80
2023/11/06 03:59:09;;;;;;;3.37;0.50;;;9.80;99.90;;;;;;4110971;28;20212;-80
2023/11/06 04:01:12;;;;;;;2.10;1.00;;;9.80;99.90;;;;;;4109631;28;20267;-80
2023/11/06 04:03:14;;;;;;;3.77;0.60;;;9.80;99.90;;;;;;4104501;28;20217;-79
2023/11/06 04:05:16;;;;;;;2.50;0.77;;;9.80;99.90;;;;;;4115125;28;20287;-80
2023/11/06 04:07:18;;;;;;;0.93;0.60;;;9.80;99.90;;;;;;4108149;28;20220;-79
2023/11/06 04:09:20;;;;;;;2.73;0.50;;;9.80;99.90;;;;;;4110737;28;20212;-80
2023/11/06 04:11:21;;;;;;;1.53;0.57;;;9.80;99.90;;;;;;4110900;28;20219;-79
2023/11/06 04:13:24;;;;;;;2.37;0.63;;;9.80;99.90;;;;;;4103792;28;20259;-80
2023/11/06 04:15:26;;;;;;;1.00;0.50;;;9.80;99.90;;;;;;4105480;28;20225;-79
2023/11/06 04:17:30;;;;;;;3.37;0.77;;;9.80;99.90;;;;;;4108247;28;20224;-80
2023/11/06 04:19:32;;;;;;;2.30;0.40;;;9.80;99.90;;;;;;4105247;28;20224;-80
2023/11/06 04:21:33;;;;;;;2.63;0.53;;;9.80;99.90;;;;;;4107248;28;20212;-80
2023/11/06 04:23:35;;;;;;;5.67;0.60;;;9.80;99.90;;;;;;4106648;28;20235;-80
2023/11/06 04:25:37;;;;;;;2.43;0.70;;;9.90;99.90;;;;;;4108107;28;20235;-79
2023/11/06 04:27:39;;;;;;;2.73;0.80;;;9.90;99.90;;;;;;4107273;28;20220;-80
2023/11/06 04:29:40;;;;;;;5.57;1.53;;;9.90;99.90;;;;;;4107233;28;20562;-79
2023/11/06 04:31:42;;;;;;;0.50;0.37;;;9.90;99.90;;;;;;4104592;28;20684;-80
2023/11/06 04:33:45;;;;;;;1.87;0.50;;;9.90;99.90;;;;;;4105312;28;20244;-79
2023/11/06 04:35:46;;;;;;;3.10;0.80;;;9.80;99.90;;;;;;4109521;28;20227;-80
2023/11/06 04:37:48;;;;;;;1.50;0.47;;;9.90;99.90;;;;;;4105393;28;20207;-79
2023/11/06 04:39:50;;;;;;;1.63;0.60;;;9.80;99.90;;;;;;4104424;28;20239;-80
2023/11/06 04:41:51;;;;;;;3.07;0.50;;;9.90;99.90;;;;;;4103031;28;20709;-80
2023/11/06 04:43:53;;;;;;;2.50;0.70;;;9.90;99.90;;;;;;4101442;28;20226;-81
2023/11/06 04:45:55;;;;;;;1.27;0.50;;;9.90;99.90;;;;;;4107228;28;20925;-80
2023/11/06 04:48:00;;;;;;;2.27;0.63;;;9.90;99.90;;;;;;4100421;28;20712;-80
2023/11/06 04:50:04;;;;;;;2.07;0.67;;;9.90;99.90;;;;;;4111404;28;20730;-80
2023/11/06 04:52:06;;;;;;;4.83;0.63;;;10.00;99.90;;;;;;4114771;28;20220;-80
2023/11/06 04:54:08;;;;;;;0.40;0.40;;;10.00;99.90;;;;;;4115755;28;20563;-80
2023/11/06 04:56:10;;;;;;;4.33;0.73;;;9.90;99.90;;;;;;4102530;28;20232;-80
2023/11/06 04:58:11;;;;;;;4.33;0.60;;;10.00;99.90;;;;;;4104971;28;20221;-81
2023/11/06 05:00:14;;;;;;;2.53;0.57;;;10.00;99.90;;;;;;4103243;28;20263;-84
2023/11/06 05:02:16;;;;;;;2.13;0.50;;;10.00;99.90;;;;;;4108240;28;20231;-81
2023/11/06 05:04:18;;;;;;;4.73;0.60;;;10.00;99.90;;;;;;4108933;28;20702;-82
2023/11/06 05:06:21;;;;;;;1.63;0.50;;;10.00;99.90;;;;;;4103691;28;20653;-80
2023/11/06 05:08:22;;;;;;;1.13;0.60;;;10.00;99.90;;;;;;4112606;28;20224;-80
2023/11/06 05:10:24;;;;;;;3.87;0.80;;;10.10;99.90;;;;;;4106444;28;20291;-80
2023/11/06 05:12:25;;;;;;;2.40;0.60;;;10.10;99.90;;;;;;4106891;28;20235;-80
2023/11/06 05:14:28;;;;;;;2.13;0.80;;;10.10;99.90;;;;;;4111612;28;20596;-80
2023/11/06 05:16:30;;;;;;;1.63;0.60;;;10.00;99.90;;;;;;4107208;28;20236;-80
2023/11/06 05:18:32;;;;;;;2.50;0.70;;;10.00;99.90;;;;;;4105377;28;20231;-80
2023/11/06 05:20:34;;;;;;;1.67;0.63;;;10.00;99.90;;;;;;4107269;28;20278;-81
2023/11/06 05:22:39;;;;;;;3.60;0.50;;;10.00;99.90;;;;;;4107527;28;20227;-80
2023/11/06 05:24:42;;;;;;;2.60;0.70;;;10.00;99.90;;;;;;4106265;28;20327;-80
2023/11/06 05:26:45;;;;;;;3.07;0.70;;;10.00;99.90;;;;;;4107090;28;20220;-79
2023/11/06 05:28:47;;;;;;;3.90;0.70;;;9.90;99.90;;;;;;4107033;28;20216;-79
2023/11/06 05:30:48;;;;;;;2.50;0.50;;;9.90;99.90;;;;;;4105518;28;20217;-80
2023/11/06 05:32:50;;;;;;;2.60;0.70;;;9.90;99.90;;;;;;4106458;28;20204;-78
2023/11/06 05:34:53;;;;;;;1.87;0.70;;;9.90;99.90;;;;;;4106428;28;20248;-79
2023/11/06 05:36:55;;;;;;;1.77;0.70;;;9.90;99.90;;;;;;4109172;28;20209;-80
2023/11/06 05:38:58;;;;;;;1.63;0.50;;;9.90;99.90;;;;;;4114602;28;20201;-81
2023/11/06 05:41:00;;;;;;;2.63;0.50;;;9.90;99.90;;;;;;4108891;28;20216;-80
2023/11/06 05:43:02;;;;;;;1.37;0.60;;;9.90;99.90;;;;;;4108506;28;20219;-77
2023/11/06 05:45:05;;;;;;;1.37;0.70;;;9.80;99.90;;;;;;4109487;28;20235;-80
2023/11/06 05:47:07;;;;;;;3.80;0.50;;;9.90;99.90;;;;;;4112530;28;20205;-80
2023/11/06 05:49:11;;;;;;;3.03;0.60;;;10.00;99.90;;;;;;4111904;28;20213;-79
2023/11/06 05:51:13;;;;;;;1.23;0.50;;;9.90;99.90;;;;;;4105871;28;20294;-79
2023/11/06 05:53:15;;;;;;;2.10;0.60;;;9.90;99.90;;;;;;4106857;28;20204;-80
2023/11/06 05:55:18;;;;;;;2.87;0.47;;;9.90;99.90;;;;;;4108047;28;20748;-79
2023/11/06 05:57:20;;;;;;;1.93;0.60;;;10.00;99.90;;;;;;4105424;28;20250;-79
2023/11/06 05:59:22;;;;;;;1.63;0.70;;;9.90;99.90;;;;;;4107079;28;20217;-79
2023/11/06 06:01:24;;;;;;;2.00;0.60;;;10.00;99.90;;;;;;4110139;28;20689;-80
2023/11/06 06:03:26;;;;;;;4.07;0.73;;;10.00;99.90;;;;;;4115245;28;20216;-80
2023/11/06 06:05:28;;;;;;;3.57;1.17;;;10.00;99.90;;;;;;4112602;28;20237;-80
2023/11/06 06:07:30;;;;;;;3.03;0.83;;;10.00;99.90;;;;;;4111427;28;20220;-80
2023/11/06 06:09:32;;;;;;;3.20;1.10;;;10.00;99.90;;;;;;4108852;28;20934;-80
2023/11/06 06:11:37;;;;;;;7.70;0.70;;;10.00;99.90;;;;;;4112274;28;20297;-80
2023/11/06 06:13:39;;;;;;;1.60;0.60;;;10.00;99.90;;;;;;4110657;28;21227;-80
2023/11/06 06:15:41;;;;;;;4.57;0.73;;;10.00;99.90;;;;;;4117203;28;20235;-80
2023/11/06 06:17:42;;;;;;;1.70;0.73;;;10.00;99.90;;;;;;4114801;28;20212;-80
2023/11/06 06:19:44;;;;;;;0.97;0.60;;;10.00;99.90;;;;;;4112010;28;20281;-80
2023/11/06 06:21:46;;;;;;;1.83;0.50;;;10.10;99.90;;;;;;4116539;28;20235;-80
2023/11/06 06:23:48;;;;;;;1.67;0.60;;;10.10;99.90;;;;;;4113916;28;20220;-80
2023/11/06 06:25:50;;;;;;;3.63;0.70;;;10.00;99.90;;;;;;4113266;28;20221;-81
2023/11/06 06:27:53;;;;;;;4.87;0.80;;;10.00;99.90;;;;;;4113115;28;20272;-80
2023/11/06 06:29:55;;;;;;;2.40;0.70;;;10.00;99.90;;;;;;4115849;28;20213;-80
2023/11/06 06:31:57;;;;;;;2.17;0.83;;;10.10;99.90;;;;;;4110277;28;20274;-80
2023/11/06 06:33:58;;;;;;;2.20;0.83;;;10.10;99.90;;;;;;4106501;28;20767;-81
2023/11/06 06:36:00;;;;;;;2.20;0.80;;;10.10;99.90;;;;;;4114147;28;20232;-80
2023/11/06 06:38:01;;;;;;;2.70;0.70;;;10.10;99.90;;;;;;4112976;28;20219;-80
2023/11/06 06:40:08;;;;;;;4.60;1.20;;;10.00;99.90;;;;;;4118803;28;20204;-81
2023/11/06 06:42:10;;;;;;;3.03;1.10;;;10.10;99.90;;;;;;4118268;28;20216;-81
2023/11/06 06:44:13;;;;;;;2.07;0.60;;;10.10;99.90;;;;;;4125653;28;20256;-81
2023/11/06 06:46:15;;;;;;;2.63;1.00;;;10.20;99.90;;;;;;4123607;28;20236;-80
2023/11/06 06:48:17;;;;;;;3.17;0.80;;;10.20;99.90;;;;;;4124918;28;20217;-81
2023/11/06 06:50:18;;;;;;;2.70;0.87;;;10.20;99.90;;;;;;4123510;28;20213;-81
2023/11/06 06:52:20;;;;;;;2.90;0.87;;;10.20;99.90;;;;;;4125919;28;20192;-80
2023/11/06 06:54:22;;;;;;;2.10;0.80;;;10.20;99.90;;;;;;4124331;28;20292;-80
2023/11/06 06:56:24;;;;;;;3.47;0.73;;;10.20;99.90;;;;;;4123259;28;20225;-80
2023/11/06 06:58:26;;;;;;;3.17;0.70;;;10.20;99.90;;;;;;4122210;28;20220;-83
2023/11/06 07:00:30;;;;;;;5.43;0.70;;;10.30;99.90;;;;;;4120882;28;20205;-82
2023/11/06 07:02:32;;;;;;;1.93;0.80;;;10.30;99.90;;;;;;4124469;28;20277;-85
2023/11/06 07:04:34;;;;;;;2.43;0.87;;;10.30;99.90;;;;;;4123081;28;20224;-82
2023/11/06 07:06:36;;;;;;;2.57;0.80;;;10.30;99.90;;;;;;4127714;28;20212;-82
2023/11/06 07:08:38;;;;;;;5.30;0.73;;;10.30;99.90;;;;;;4128138;28;20211;-82
2023/11/06 07:10:40;;;;;;;4.17;0.73;;;10.30;99.90;;;;;;4126071;28;20236;-82
2023/11/06 07:12:41;;;;;;;1.10;0.60;;;10.30;99.90;;;;;;4124787;28;20204;-82
2023/11/06 07:14:43;;;;;;;2.67;0.70;;;10.40;99.90;;;;;;4116311;28;20236;-83
2023/11/06 07:16:46;;;;;;;2.60;0.60;;;10.40;99.90;;;;;;4119449;28;20295;-83
2023/11/06 07:18:50;;;;;;;3.27;0.70;;;10.40;99.90;;;;;;4113597;28;20238;-83
2023/11/06 07:20:51;;;;;;;3.27;0.77;;;10.40;99.90;;;;;;4114403;28;20241;-81
2023/11/06 07:22:54;;;;;;;7.30;0.90;;;10.40;99.90;;;;;;4113493;28;20193;-83
2023/11/06 07:24:55;;;;;;;2.70;0.70;;;10.50;99.90;;;;;;4118524;28;20231;-82
2023/11/06 07:26:57;;;;;;;3.10;0.50;;;10.50;99.90;;;;;;4112055;28;20648;-83
2023/11/06 07:29:02;;;;;;;0.90;0.60;;;10.60;99.90;;;;;;4108262;28;20221;-85
2023/11/06 07:31:04;;;;;;;2.70;1.37;;;10.70;99.90;;;;;;4116396;28;20213;-85
2023/11/06 07:33:07;;;;;;;2.47;0.73;;;10.70;99.90;;;;;;4113578;28;21574;-85
2023/11/06 07:35:11;;;;;;;4.50;0.80;;;10.70;99.90;;;;;;4108111;28;20296;-85
2023/11/06 07:37:13;;;;;;;2.90;0.70;;;10.70;99.90;;;;;;4109696;28;20307;-85
2023/11/06 07:39:15;;;;;;;3.30;1.10;;;10.80;99.90;;;;;;4111017;28;20213;-85
2023/11/06 07:41:17;;;;;;;2.30;0.70;;;10.80;99.90;;;;;;4115625;28;20220;-84
2023/11/06 07:43:19;;;;;;;1.37;0.50;;;10.80;99.90;;;;;;4108449;28;20578;-85
2023/11/06 07:45:22;;;;;;;1.40;0.60;;;10.80;99.90;;;;;;4107322;28;20259;-85
2023/11/06 07:47:24;;;;;;;2.97;0.77;;;10.80;99.90;;;;;;4112422;28;20262;-86
2023/11/06 07:49:27;;;;;;;3.47;0.67;;;10.90;99.90;;;;;;4108062;28;20241;-85
2023/11/06 07:51:29;;;;;;;4.30;0.80;;;10.90;99.90;;;;;;4103955;28;20722;-85
2023/11/06 07:53:31;;;;;;;4.33;0.63;;;10.90;99.90;;;;;;4104715;28;20264;-85
2023/11/06 07:55:33;;;;;;;1.03;0.50;;;10.90;99.90;;;;;;4108879;28;20225;-86
2023/11/06 07:57:34;;;;;;;3.20;0.70;;;10.90;99.90;;;;;;4112791;28;20224;-80
2023/11/06 07:59:40;;;;;;;2.10;0.70;;;11.00;99.90;;;;;;4113223;28;20234;-85
2023/11/06 08:01:45;;;;;;;3.07;0.70;;;11.00;99.90;;;;;;4129839;28;20237;-85
2023/11/06 08:03:47;;;;;;;7.83;0.93;;;11.00;99.90;;;;;;4121965;28;20217;-87
2023/11/06 08:05:51;;;;;;;3.50;0.63;;;11.00;99.90;;;;;;4108683;28;20237;-87
2023/11/06 08:07:53;;;;;;;2.80;0.90;;;11.10;99.90;;;;;;4113461;28;20212;-86
2023/11/06 08:09:55;;;;;;;3.23;0.80;;;11.00;99.90;;;;;;4119355;28;20238;-87
2023/11/06 08:11:56;;;;;;;2.30;0.70;;;10.90;99.90;;;;;;4121859;28;20220;-87
2023/11/06 08:13:58;;;;;;;3.03;0.40;;;10.90;99.90;;;;;;4113352;28;20319;-86
2023/11/06 08:16:00;;;;;;;3.43;0.60;;;10.90;99.90;;;;;;4118826;28;20207;-85
2023/11/06 08:18:02;;;;;;;4.27;0.77;;;10.90;99.90;;;;;;4115302;28;20300;-87
2023/11/06 08:20:06;;;;;;;4.00;0.57;;;10.90;99.90;;;;;;4112614;28;20312;-86
2023/11/06 08:22:10;;;;;;;6.43;1.00;;;10.90;99.90;;;;;;4107781;28;20201;-86
2023/11/06 08:24:12;;;;;;;2.80;0.90;;;10.90;99.90;;;;;;4116374;28;20651;-86
2023/11/06 08:26:14;;;;;;;3.50;0.63;;;10.90;99.90;;;;;;4112276;28;20209;-86
2023/11/06 08:28:17;;;;;;;3.97;0.50;;;11.00;99.90;;;;;;4112745;28;20220;-86
2023/11/06 08:30:21;;;;;;;2.23;0.43;;;11.10;99.90;;;;;;4110210;28;20300;-86
2023/11/06 08:32:24;;;;;;;1.50;0.50;;;11.10;99.90;;;;;;4103936;28;20210;-85
2023/11/06 08:34:26;;;;;;;3.47;0.80;;;11.20;99.90;;;;;;4110671;28;20261;-84
2023/11/06 08:36:28;;;;;;;2.37;0.80;;;11.20;99.90;;;;;;4113369;28;20233;-85
2023/11/06 08:38:31;;;;;;;0.93;0.60;;;11.30;99.90;;;;;;4105301;28;20269;-85
2023/11/06 08:40:33;;;;;;;0.83;0.40;;;11.30;99.90;;;;;;4109001;28;20615;-85
2023/11/06 08:42:37;;;;;;;2.63;0.40;;;11.40;99.90;;;;;;4104771;28;20213;-85
2023/11/06 08:44:40;;;;;;;2.73;0.67;;;11.40;99.90;;;;;;4110105;28;20235;-85
2023/11/06 08:46:42;;;;;;;1.90;0.60;;;11.40;99.90;;;;;;4117243;28;20232;-85
2023/11/06 08:48:44;;;;;;;1.43;0.50;;;11.50;99.90;;;;;;4111728;28;20213;-84
2023/11/06 08:50:46;;;;;;;2.03;0.63;;;11.50;99.90;;;;;;4116149;28;20197;-84
2023/11/06 08:52:49;;;;;;;2.53;0.70;;;11.50;99.90;;;;;;4116863;28;20548;-85
2023/11/06 08:54:52;;;;;;;1.50;0.67;;;11.60;99.90;;;;;;4115315;28;20336;-84
2023/11/06 08:56:55;;;;;;;3.97;0.70;;;11.90;99.90;;;;;;4105631;28;20391;-84
2023/11/06 08:58:59;;;;;;;2.93;0.50;;;11.60;99.90;;;;;;4116181;28;20206;-86
2023/11/06 09:01:01;;;;;;;2.93;0.77;;;11.70;99.90;;;;;;4108564;28;20217;-86
2023/11/06 09:03:04;;;;;;;3.00;0.60;;;11.70;99.90;;;;;;4109542;28;20610;-85
2023/11/06 09:05:07;;;;;;;2.97;0.80;;;11.70;99.90;;;;;;4099639;28;20258;-86
2023/11/06 09:07:10;;;;;;;4.00;0.60;;;11.70;99.90;;;;;;4108552;28;20215;-86
2023/11/06 09:09:12;;;;;;;1.50;0.40;;;11.60;99.90;;;;;;4105510;28;20216;-86
2023/11/06 09:11:16;;;;;;;5.67;0.60;;;11.70;99.90;;;;;;4110215;28;20221;-86
2023/11/06 09:13:18;;;;;;;2.30;0.60;;;11.70;99.90;;;;;;4105226;28;20674;-86
2023/11/06 09:15:20;;;;;;;2.67;0.70;;;11.50;99.90;;;;;;4118414;28;20304;-86
2023/11/06 09:17:23;;;;;;;4.37;0.80;;;11.70;99.90;;;;;;4108037;28;20224;-86
2023/11/06 09:19:25;;;;;;;2.07;0.73;;;11.80;99.90;;;;;;4112916;28;20252;-86
2023/11/06 09:21:28;;;;;;;2.73;0.80;;;11.80;99.90;;;;;;4114400;28;20201;-87
2023/11/06 09:23:30;;;;;;;2.67;0.70;;;11.80;99.90;;;;;;4107575;28;20218;-87
2023/11/06 09:25:32;;;;;;;3.90;0.77;;;11.80;99.90;;;;;;4109198;28;20215;-86
2023/11/06 09:27:36;;;;;;;3.63;0.90;;;11.80;99.90;;;;;;4116414;28;20214;-86
2023/11/06 09:29:37;;;;;;;3.20;0.83;;;11.90;99.90;;;;;;4118398;28;20201;-86
2023/11/06 09:31:41;;;;;;;3.07;0.90;;;11.90;99.90;;;;;;4114724;28;20274;-86
2023/11/06 09:33:43;;;;;;;5.43;0.70;;;11.90;99.90;;;;;;4114935;28;20221;-87
2023/11/06 09:35:45;;;;;;;3.20;0.77;;;12.00;99.90;;;;;;4108705;28;20674;-86
2023/11/06 09:37:47;;;;;;;9.10;2.33;;;12.00;99.90;;;;;;4108459;28;20225;-86
2023/11/06 09:39:49;;;;;;;5.90;1.67;;;12.00;99.90;;;;;;4111794;28;20209;-87
2023/11/06 09:41:52;;;;;;;2.57;0.80;;;12.00;99.90;;;;;;4125048;28;20288;-87
2023/11/06 09:43:55;;;;;;;7.37;1.63;;;12.10;99.90;;;;;;4118264;28;20327;-86
2023/11/06 09:45:58;;;;;;;11.53;2.77;;;12.10;99.90;;;;;;4113811;28;20257;-85
2023/11/06 09:48:01;;;;;;;8.27;2.57;;;12.10;99.90;;;;;;4107584;28;20198;-86
2023/11/06 09:50:06;;;;;;;9.33;2.93;;;12.00;99.90;;;;;;4113333;28;20238;-85
2023/11/06 09:52:09;;;;;;;10.63;2.10;;;12.10;99.90;;;;;;4106671;28;20673;-87
2023/11/06 09:54:11;;;;;;;5.03;1.03;;;12.00;99.90;;;;;;4112021;28;20311;-87
2023/11/06 09:56:14;;;;;;;4.57;1.20;;;12.00;99.90;;;;;;4111835;28;20214;-86
2023/11/06 09:58:16;;;;;;;6.10;1.60;;;12.00;99.90;;;;;;4121707;28;20276;-87
2023/11/06 10:00:20;;;;;;;6.20;2.27;;;12.00;99.90;;;;;;4108936;28;20259;-84
2023/11/06 10:02:23;;;;;;;2.87;0.90;;;12.00;99.90;;;;;;4108327;28;20300;-86
2023/11/06 10:04:28;;;;;;;6.23;1.40;;;12.10;99.90;;;;;;4116177;28;20228;-86
2023/11/06 10:06:30;;;;;;;8.67;1.37;;;12.20;99.90;;;;;;4111131;28;20216;-85
2023/11/06 10:08:34;;;;;;;7.73;1.40;;;12.20;99.90;;;;;;4107419;28;20221;-85
2023/11/06 10:10:38;;;;;;;5.40;1.30;;;12.20;99.90;;;;;;4111408;28;20210;-86
2023/11/06 10:12:42;;;;;;;6.80;1.80;;;12.30;99.90;;;;;;4111404;28;20236;-86
2023/11/06 10:14:45;;;;;;;7.93;1.33;;;12.40;99.90;;;;;;4114340;28;20246;-86
2023/11/06 10:17:03;;;;;;;6.03;1.90;;;12.40;99.90;;;;;;4115498;28;20230;-86
2023/11/06 10:19:12;;;;;;;12.30;3.10;;;12.50;99.90;;;;;;4111055;28;20232;-85
2023/11/06 10:21:27;;;;;;;9.23;2.23;;;12.50;99.90;;;;;;4114164;28;20202;-85
2023/11/06 10:23:32;;;;;;;10.43;2.87;;;12.50;99.90;;;;;;4114684;28;20252;-84
2023/11/06 10:25:33;;;;;;;9.80;2.73;;;12.50;99.90;;;;;;4115677;28;20242;-84
2023/11/06 10:27:36;;;;;;;7.70;1.47;;;12.50;99.90;;;;;;4109287;28;20198;-85
2023/11/06 10:29:38;;;;;;;5.77;1.07;;;12.50;99.90;;;;;;4110647;28;20209;-85
2023/11/06 10:31:42;;;;;;;5.00;1.20;;;12.60;99.90;;;;;;4119152;28;20209;-85
2023/11/06 10:33:45;;;;;;;7.97;1.40;;;12.60;99.90;;;;;;4120669;28;20209;-85
2023/11/06 10:35:47;;;;;;;9.90;2.07;;;12.70;99.90;;;;;;4113930;28;20224;-85
2023/11/06 10:37:50;;;;;;;6.87;1.07;;;12.70;99.90;;;;;;4115221;28;20635;-84
2023/11/06 10:39:54;;;;;;;7.13;1.10;;;12.80;99.90;;;;;;4106907;28;20616;-85